Time;durP1;ratioP1;P1;durP2;ratioP2;P2;SDS_P1;SDS_P2;PMS_P1;PMS_P2;Temp;Humidity;BMP_temperature;BMP_pressure;BME280_temperature;BME280_humidity;BME280_pressure;Samples;Min_cycle;Max_cycle;Signal;HPM_P1;HPM_P2
2022/10/19 00:00:49;;;;;;;8.05;3.92;;;12.00;99.90;;;;;;4852085;29;20073;-57
2022/10/19 00:03:16;;;;;;;;;;;11.90;99.90;;;;;;4856482;29;20664;-54
2022/10/19 00:05:48;;;;;;;9.20;4.63;;;11.90;99.90;;;;;;4853263;29;20037;-58
2022/10/19 00:08:15;;;;;;;10.02;3.92;;;11.90;99.90;;;;;;4850707;29;20056;-56
2022/10/19 00:10:42;;;;;;;11.52;4.53;;;11.80;99.90;;;;;;4850173;29;20072;-55
2022/10/19 00:13:08;;;;;;;9.98;4.32;;;11.80;99.90;;;;;;4853418;29;20056;-57
2022/10/19 00:15:39;;;;;;;10.93;4.18;;;11.80;99.90;;;;;;4857639;29;20828;-56
2022/10/19 00:18:07;;;;;;;8.35;4.53;;;11.70;99.90;;;;;;4854781;29;20921;-54
2022/10/19 00:20:35;;;;;;;12.38;3.67;;;11.70;99.90;;;;;;4851241;29;20052;-57
2022/10/19 00:23:03;;;;;;;10.90;4.05;;;11.70;99.90;;;;;;4855923;29;20053;-57
2022/10/19 00:25:29;;;;;;;10.35;4.13;;;11.70;99.90;;;;;;4851062;29;20054;-58
2022/10/19 00:27:56;;;;;;;;;;;11.60;99.90;;;;;;4853381;29;20054;-56
2022/10/19 00:30:23;;;;;;;26.80;5.07;;;11.60;99.90;;;;;;4853428;29;20063;-56
2022/10/19 00:32:49;;;;;;;20.15;4.28;;;11.60;99.90;;;;;;4850916;29;20638;-59
2022/10/19 00:35:16;;;;;;;14.68;4.85;;;11.50;99.90;;;;;;4853499;29;20059;-55
2022/10/19 00:37:43;;;;;;;11.35;5.18;;;11.50;99.90;;;;;;4850668;29;20094;-55
2022/10/19 00:40:10;;;;;;;14.40;4.70;;;11.50;99.90;;;;;;4853215;29;20048;-58
2022/10/19 00:42:37;;;;;;;13.02;5.00;;;11.50;99.90;;;;;;4858920;29;20048;-54
2022/10/19 00:45:11;;;;;;;;;;;11.50;99.90;;;;;;4839389;29;20084;-55
2022/10/19 00:47:38;;;;;;;13.35;4.88;;;11.50;99.90;;;;;;4853058;29;19974;-54
2022/10/19 00:50:05;;;;;;;10.02;4.22;;;11.50;99.90;;;;;;4855402;29;20105;-55
2022/10/19 00:52:32;;;;;;;12.60;4.45;;;11.50;99.90;;;;;;4852374;29;20057;-57
2022/10/19 00:55:00;;;;;;;9.57;5.40;;;11.50;99.90;;;;;;4859027;29;20053;-56
2022/10/19 00:57:29;;;;;;;13.45;4.70;;;11.50;99.90;;;;;;4857233;29;20443;-57
2022/10/19 00:59:58;;;;;;;5.38;4.15;;;11.50;99.90;;;;;;4852905;29;20055;-54
2022/10/19 01:02:25;;;;;;;18.38;5.10;;;11.50;99.90;;;;;;4851880;29;20044;-55
2022/10/19 01:04:52;;;;;;;10.38;5.68;;;11.50;99.90;;;;;;4857620;29;21028;-56
2022/10/19 01:07:19;;;;;;;7.03;4.47;;;11.40;99.90;;;;;;4852875;29;20045;-56
2022/10/19 01:09:46;;;;;;;7.65;4.65;;;11.40;99.90;;;;;;4855448;29;20355;-54
2022/10/19 01:12:31;;;;;;;12.05;4.10;;;11.50;99.90;;;;;;4854538;29;20054;-57
2022/10/19 01:15:13;;;;;;;7.85;4.70;;;11.40;99.90;;;;;;4849395;29;20092;-58
2022/10/19 01:18:04;;;;;;;7.00;4.88;;;11.40;99.90;;;;;;4857635;29;20053;-57
2022/10/19 01:20:55;;;;;;;18.65;6.35;;;11.40;99.90;;;;;;4849102;29;20052;-58
2022/10/19 01:23:22;;;;;;;7.65;4.57;;;11.40;99.90;;;;;;4849864;29;20049;-54
2022/10/19 01:26:14;;;;;;;6.45;4.05;;;11.40;99.90;;;;;;4832679;29;20087;-51
2022/10/19 01:29:12;;;;;;;9.50;4.57;;;11.40;99.90;;;;;;4851030;29;20092;-56
2022/10/19 01:31:52;;;;;;;11.93;4.67;;;11.30;99.90;;;;;;4853394;29;20796;-54
2022/10/19 01:34:31;;;;;;;11.52;5.38;;;11.30;99.90;;;;;;4854370;29;20059;-55
2022/10/19 01:37:03;;;;;;;12.95;6.47;;;11.30;99.90;;;;;;4858551;29;20041;-57
2022/10/19 01:39:55;;;;;;;10.93;5.05;;;11.30;99.90;;;;;;4857086;29;20644;-55
2022/10/19 01:42:47;;;;;;;7.57;4.78;;;11.30;99.90;;;;;;4853242;29;20861;-55
2022/10/19 01:45:36;;;;;;;10.10;4.95;;;11.20;99.90;;;;;;4855401;29;20065;-56
2022/10/19 01:48:11;;;;;;;11.23;4.93;;;11.20;99.90;;;;;;4853552;29;20109;-57
2022/10/19 01:51:08;;;;;;;10.30;5.22;;;11.10;99.90;;;;;;4857637;29;20684;-54
2022/10/19 01:53:40;;;;;;;12.15;5.05;;;11.10;99.90;;;;;;4848492;29;20060;-55
2022/10/19 01:56:08;;;;;;;11.00;5.57;;;11.00;99.90;;;;;;4854280;29;20046;-52
2022/10/19 01:58:37;;;;;;;8.48;4.82;;;11.00;99.90;;;;;;4858770;29;20059;-55
2022/10/19 02:01:07;;;;;;;9.23;4.80;;;11.00;99.90;;;;;;4858691;29;20124;-56
2022/10/19 02:03:36;;;;;;;16.55;6.30;;;10.90;99.90;;;;;;4855136;29;20041;-56
2022/10/19 02:06:06;;;;;;;10.77;5.68;;;10.90;99.90;;;;;;4857731;29;20056;-56
2022/10/19 02:08:39;;;;;;;22.63;6.90;;;10.90;99.90;;;;;;4853362;29;20128;-54
2022/10/19 02:11:06;;;;;;;12.93;5.78;;;10.90;99.90;;;;;;4854145;29;20586;-56
2022/10/19 02:13:34;;;;;;;13.27;5.93;;;10.90;99.90;;;;;;4855592;29;20757;-58
2022/10/19 02:16:06;;;;;;;12.32;6.28;;;10.90;99.90;;;;;;4851787;29;20041;-57
2022/10/19 02:18:38;;;;;;;12.98;5.30;;;10.90;99.90;;;;;;4853945;29;20073;-58
2022/10/19 02:21:06;;;;;;;15.75;5.60;;;10.90;99.90;;;;;;4853649;29;20101;-56
2022/10/19 02:23:33;;;;;;;15.55;5.53;;;10.90;99.90;;;;;;4850941;29;20041;-57
2022/10/19 02:26:00;;;;;;;9.57;5.38;;;10.90;99.90;;;;;;4851815;29;20147;-53
2022/10/19 02:28:29;;;;;;;16.50;5.78;;;10.80;99.90;;;;;;4856395;29;20207;-58
2022/10/19 02:30:57;;;;;;;18.10;5.70;;;10.80;99.90;;;;;;4854844;29;20049;-58
2022/10/19 02:33:24;;;;;;;11.85;5.50;;;10.80;99.90;;;;;;4854769;29;20056;-55
2022/10/19 02:35:51;;;;;;;12.30;5.10;;;10.80;99.90;;;;;;4859129;29;20536;-54
2022/10/19 02:38:21;;;;;;;11.98;5.07;;;10.80;99.90;;;;;;4856407;29;20053;-54
2022/10/19 02:40:56;;;;;;;12.50;5.07;;;10.80;99.90;;;;;;4855719;29;20051;-54
2022/10/19 02:43:25;;;;;;;7.45;4.70;;;10.80;99.90;;;;;;4852113;29;20278;-58
2022/10/19 02:46:01;;;;;;;10.70;5.45;;;10.80;99.90;;;;;;4855619;29;20147;-56
2022/10/19 02:48:30;;;;;;;9.25;4.95;;;10.80;99.90;;;;;;4854286;29;20511;-57
2022/10/19 02:50:57;;;;;;;12.40;5.13;;;10.70;99.90;;;;;;4856442;29;20045;-58
2022/10/19 02:53:24;;;;;;;17.35;6.00;;;10.70;99.90;;;;;;4856183;29;20045;-55
2022/10/19 02:55:51;;;;;;;;;;;10.70;99.90;;;;;;4855929;29;20057;-56
2022/10/19 02:58:17;;;;;;;30.20;7.10;;;10.70;99.90;;;;;;4861614;29;20178;-57
2022/10/19 03:00:44;;;;;;;;;;;10.70;99.90;;;;;;4862069;29;20053;-56
2022/10/19 03:03:11;;;;;;;12.40;5.55;;;10.70;99.90;;;;;;4860959;29;19938;-53
2022/10/19 03:05:38;;;;;;;8.70;5.55;;;10.70;99.90;;;;;;4859794;29;20059;-56
2022/10/19 03:08:05;;;;;;;16.65;6.60;;;10.60;99.90;;;;;;4855473;29;20053;-57
2022/10/19 03:10:31;;;;;;;13.30;6.63;;;10.60;99.90;;;;;;4856030;29;20128;-56
2022/10/19 03:12:58;;;;;;;18.42;6.78;;;10.60;99.90;;;;;;4857200;29;20629;-56
2022/10/19 03:15:27;;;;;;;9.63;6.72;;;10.60;99.90;;;;;;4850059;29;20050;-57
2022/10/19 03:17:55;;;;;;;12.30;6.05;;;10.60;99.90;;;;;;4848715;29;20084;-56
2022/10/19 03:20:22;;;;;;;13.85;7.43;;;10.50;99.90;;;;;;4843547;29;20097;-58
2022/10/19 03:22:49;;;;;;;8.77;5.70;;;10.50;99.90;;;;;;4848707;29;20045;-53
2022/10/19 03:25:16;;;;;;;12.88;5.85;;;10.50;99.90;;;;;;4849104;29;20052;-53
2022/10/19 03:27:43;;;;;;;13.55;6.07;;;10.50;99.90;;;;;;4853144;29;20904;-54
2022/10/19 03:30:10;;;;;;;11.88;6.28;;;10.40;99.90;;;;;;4838940;29;20059;-56
2022/10/19 03:32:36;;;;;;;9.73;6.38;;;10.40;99.90;;;;;;4856092;29;20053;-58
2022/10/19 03:35:03;;;;;;;21.40;6.18;;;10.40;99.90;;;;;;4858604;29;20056;-56
2022/10/19 03:37:30;;;;;;;8.13;4.82;;;10.40;99.90;;;;;;4855913;29;20057;-55
2022/10/19 03:39:57;;;;;;;8.13;5.28;;;10.40;99.90;;;;;;4860807;29;20061;-57
2022/10/19 03:42:24;;;;;;;11.10;5.75;;;10.40;99.90;;;;;;4851943;29;20183;-58
2022/10/19 03:44:51;;;;;;;18.38;6.38;;;10.40;99.90;;;;;;4855991;29;20044;-55
2022/10/19 03:47:17;;;;;;;;;;;10.30;99.90;;;;;;4854909;29;20594;-56
2022/10/19 03:49:44;;;;;;;17.83;6.63;;;10.30;99.90;;;;;;4854324;29;19991;-57
2022/10/19 03:52:11;;;;;;;8.85;5.10;;;10.30;99.90;;;;;;4847333;29;20559;-58
2022/10/19 03:54:37;;;;;;;6.88;4.82;;;10.30;99.90;;;;;;4855096;29;20044;-56
2022/10/19 03:57:04;;;;;;;13.93;5.30;;;10.20;99.90;;;;;;4858161;29;20068;-59
2022/10/19 03:59:31;;;;;;;;;;;10.20;99.90;;;;;;4856905;29;20053;-58
2022/10/19 04:01:58;;;;;;;9.52;4.45;;;10.30;99.90;;;;;;4856630;29;20050;-56
2022/10/19 04:04:24;;;;;;;6.70;3.90;;;10.20;99.90;;;;;;4857579;29;20032;-58
2022/10/19 04:06:52;;;;;;;;;;;10.20;99.90;;;;;;4857443;29;20057;-56
2022/10/19 04:09:21;;;;;;;9.93;5.00;;;10.20;99.90;;;;;;4858875;29;19928;-57
2022/10/19 04:11:48;;;;;;;9.95;5.10;;;10.20;99.90;;;;;;4853003;29;20068;-57
2022/10/19 04:14:16;;;;;;;;;;;10.20;99.90;;;;;;4849496;29;20056;-56
2022/10/19 04:16:57;;;;;;;9.13;4.22;;;10.20;99.90;;;;;;4854639;29;19927;-55
2022/10/19 04:19:24;;;;;;;7.85;4.20;;;10.20;99.90;;;;;;4857197;29;20055;-57
2022/10/19 04:21:51;;;;;;;8.07;5.03;;;10.10;99.90;;;;;;4848365;29;20654;-58
2022/10/19 04:24:18;;;;;;;8.55;5.65;;;10.10;99.90;;;;;;4849346;29;20049;-56
2022/10/19 04:26:49;;;;;;;7.97;4.15;;;10.00;99.90;;;;;;4848307;29;20057;-57
2022/10/19 04:29:18;;;;;;;10.65;5.70;;;10.00;99.90;;;;;;4851848;29;20084;-55
2022/10/19 04:31:47;;;;;;;15.63;4.95;;;10.00;99.90;;;;;;4837414;29;20080;-57
2022/10/19 04:34:14;;;;;;;9.65;5.15;;;9.90;99.90;;;;;;4856695;29;20068;-57
2022/10/19 04:36:41;;;;;;;9.52;5.45;;;9.90;99.90;;;;;;4858507;29;20051;-55
2022/10/19 04:39:08;;;;;;;;;;;9.90;99.90;;;;;;4856211;29;20069;-56
2022/10/19 04:41:36;;;;;;;20.13;7.07;;;9.90;99.90;;;;;;4852614;29;20588;-56
2022/10/19 04:44:05;;;;;;;20.15;6.93;;;9.90;99.90;;;;;;4856333;29;20080;-56
2022/10/19 04:46:32;;;;;;;14.82;7.10;;;9.80;99.90;;;;;;4854917;29;20056;-55
2022/10/19 04:48:59;;;;;;;26.10;7.53;;;9.90;99.90;;;;;;4855296;29;20396;-57
2022/10/19 04:51:26;;;;;;;;;;;9.90;99.90;;;;;;4850228;29;20049;-57
2022/10/19 04:53:55;;;;;;;29.97;7.97;;;9.80;99.90;;;;;;4851103;29;20606;-55
2022/10/19 04:56:26;;;;;;;18.50;8.23;;;9.90;99.90;;;;;;4847986;29;20056;-56
2022/10/19 04:58:55;;;;;;;10.23;6.65;;;9.90;99.90;;;;;;4856559;29;20048;-56
2022/10/19 05:01:23;;;;;;;13.77;7.60;;;9.90;99.90;;;;;;4855527;29;20059;-57
2022/10/19 05:03:55;;;;;;;12.75;7.32;;;9.90;99.90;;;;;;4855949;29;20053;-56
2022/10/19 05:06:28;;;;;;;11.95;6.75;;;9.90;99.90;;;;;;4852700;29;20093;-54
2022/10/19 05:08:55;;;;;;;15.05;6.45;;;9.90;99.90;;;;;;4862801;29;20211;-56
2022/10/19 05:11:22;;;;;;;15.55;6.80;;;9.90;99.90;;;;;;4861495;29;20041;-55
2022/10/19 05:13:49;;;;;;;;;;;9.90;99.90;;;;;;4861879;29;20281;-55
2022/10/19 05:16:19;;;;;;;14.45;5.95;;;9.90;99.90;;;;;;4858097;29;19927;-55
2022/10/19 05:18:47;;;;;;;14.55;6.88;;;9.90;99.90;;;;;;4851007;29;20105;-54
2022/10/19 05:21:15;;;;;;;13.07;5.97;;;9.90;99.90;;;;;;4854517;29;20047;-56
2022/10/19 05:23:42;;;;;;;9.48;5.43;;;9.90;99.90;;;;;;4852245;29;20056;-55
2022/10/19 05:26:16;;;;;;;8.98;5.95;;;9.90;99.90;;;;;;4850555;29;20056;-56
2022/10/19 05:28:46;;;;;;;11.70;6.40;;;9.80;99.90;;;;;;4856012;29;20048;-54
2022/10/19 05:31:16;;;;;;;13.45;5.93;;;9.80;99.90;;;;;;4860035;29;20972;-57
2022/10/19 05:33:43;;;;;;;9.57;6.65;;;9.80;99.90;;;;;;4852036;29;20602;-53
2022/10/19 05:36:16;;;;;;;16.60;7.57;;;9.80;99.90;;;;;;4851996;29;20048;-54
2022/10/19 05:38:44;;;;;;;34.90;14.35;;;9.80;99.90;;;;;;4853453;29;20049;-54
2022/10/19 05:41:12;;;;;;;29.13;13.43;;;9.80;99.90;;;;;;4859300;29;20047;-52
2022/10/19 05:43:40;;;;;;;27.95;13.60;;;9.80;99.90;;;;;;4861279;29;20108;-54
2022/10/19 05:46:10;;;;;;;20.10;10.27;;;9.90;99.90;;;;;;4856909;29;20052;-55
2022/10/19 05:48:37;;;;;;;15.07;9.82;;;9.80;99.90;;;;;;4860842;29;20053;-54
2022/10/19 05:51:06;;;;;;;15.88;9.82;;;9.80;99.90;;;;;;4858877;29;20111;-55
2022/10/19 05:53:33;;;;;;;21.55;9.07;;;9.80;99.90;;;;;;4855113;29;20766;-56
2022/10/19 05:56:00;;;;;;;19.08;8.23;;;9.80;99.90;;;;;;4859390;29;20053;-56
2022/10/19 05:58:27;;;;;;;19.35;7.82;;;9.70;99.90;;;;;;4861422;29;20052;-56
2022/10/19 06:00:55;;;;;;;12.80;7.53;;;9.70;99.90;;;;;;4856717;29;20116;-56
2022/10/19 06:03:24;;;;;;;13.52;6.80;;;9.70;99.90;;;;;;4853981;29;20061;-56
2022/10/19 06:05:51;;;;;;;13.73;7.82;;;9.70;99.90;;;;;;4851951;29;20057;-56
2022/10/19 06:08:19;;;;;;;13.75;7.80;;;9.70;99.90;;;;;;4856431;29;20073;-54
2022/10/19 06:10:47;;;;;;;14.98;8.10;;;9.70;99.90;;;;;;4851716;29;20049;-55
2022/10/19 06:13:17;;;;;;;21.38;9.70;;;9.70;99.90;;;;;;4861438;29;20049;-54
2022/10/19 06:15:43;;;;;;;13.63;6.88;;;9.70;99.90;;;;;;4848482;29;20144;-56
2022/10/19 06:18:12;;;;;;;14.32;7.85;;;9.80;99.90;;;;;;4849029;29;20127;-57
2022/10/19 06:20:40;;;;;;;31.20;8.70;;;9.90;99.90;;;;;;4852090;29;20093;-56
2022/10/19 06:23:08;;;;;;;13.43;7.28;;;10.10;99.90;;;;;;4855773;29;20036;-59
2022/10/19 06:25:36;;;;;;;10.98;6.70;;;10.20;99.90;;;;;;4856277;29;20136;-52
2022/10/19 06:28:03;;;;;;;9.50;6.45;;;10.40;99.90;;;;;;4851415;29;20069;-56
2022/10/19 06:30:30;;;;;;;17.65;6.43;;;10.70;99.90;;;;;;4852823;29;20061;-56
2022/10/19 06:32:57;;;;;;;;;;;11.00;99.90;;;;;;4852744;29;20066;-54
2022/10/19 06:35:24;;;;;;;16.45;5.95;;;11.40;99.90;;;;;;4856250;29;20330;-57
2022/10/19 06:37:51;;;;;;;;;;;11.70;99.90;;;;;;4855770;29;20044;-55
2022/10/19 06:40:17;;;;;;;9.27;5.15;;;12.10;99.90;;;;;;4853181;29;20172;-56
2022/10/19 06:42:44;;;;;;;9.50;4.93;;;12.40;99.90;;;;;;4849184;29;20075;-58
2022/10/19 06:45:11;;;;;;;13.85;6.05;;;12.70;99.90;;;;;;4843897;29;20061;-55
2022/10/19 06:47:37;;;;;;;17.90;6.00;;;12.90;99.90;;;;;;4850753;29;20607;-56
2022/10/19 06:50:06;;;;;;;16.38;5.53;;;13.30;99.90;;;;;;4851385;29;20076;-58
2022/10/19 06:52:34;;;;;;;25.38;6.10;;;13.60;99.90;;;;;;4856613;29;20573;-56
2022/10/19 06:55:02;;;;;;;12.68;4.60;;;13.80;99.90;;;;;;4839636;29;20047;-57
2022/10/19 06:57:28;;;;;;;16.17;5.60;;;14.20;99.90;;;;;;4854178;29;20669;-57
2022/10/19 06:59:55;;;;;;;10.43;4.70;;;14.40;99.90;;;;;;4851322;29;20049;-57
2022/10/19 07:02:23;;;;;;;17.77;5.25;;;14.80;99.90;;;;;;4858227;29;20048;-58
2022/10/19 07:04:49;;;;;;;13.63;4.97;;;15.10;99.90;;;;;;4858462;29;20452;-55
2022/10/19 07:07:16;;;;;;;22.88;4.97;;;15.30;99.90;;;;;;4858807;29;20590;-58
2022/10/19 07:09:43;;;;;;;;;;;15.60;99.90;;;;;;4857914;29;20064;-57
2022/10/19 07:12:09;;;;;;;14.65;4.80;;;15.80;99.90;;;;;;4852071;29;19928;-54
2022/10/19 07:14:38;;;;;;;12.18;3.80;;;16.00;99.90;;;;;;4854515;29;20049;-56
2022/10/19 07:17:06;;;;;;;16.73;5.35;;;16.30;99.90;;;;;;4856359;29;20810;-57
2022/10/19 07:19:33;;;;;;;18.58;6.25;;;16.50;99.90;;;;;;4861730;29;20041;-54
2022/10/19 07:21:59;;;;;;;;;;;16.60;99.90;;;;;;4852590;29;20059;-58
2022/10/19 07:24:26;;;;;;;15.18;6.55;;;16.60;99.90;;;;;;4855789;29;19927;-55
2022/10/19 07:26:53;;;;;;;12.18;5.65;;;16.70;99.90;;;;;;4851455;29;20045;-55
2022/10/19 07:29:20;;;;;;;14.20;5.60;;;16.70;99.90;;;;;;4855850;29;20083;-58
2022/10/19 07:31:47;;;;;;;17.60;5.90;;;16.70;99.90;;;;;;4854999;29;20152;-57
2022/10/19 07:34:15;;;;;;;15.40;6.53;;;16.80;99.90;;;;;;4854576;29;20558;-56
2022/10/19 07:36:45;;;;;;;21.58;8.63;;;16.90;99.90;;;;;;4854348;29;20050;-56
2022/10/19 07:39:12;;;;;;;31.05;9.27;;;16.80;99.90;;;;;;4843360;29;20048;-55
2022/10/19 07:41:39;;;;;;;12.02;7.75;;;16.60;99.90;;;;;;4859673;29;20045;-56
2022/10/19 07:44:05;;;;;;;14.10;9.07;;;16.20;99.90;;;;;;4855223;29;20080;-56
2022/10/19 07:46:37;;;;;;;17.30;10.20;;;15.90;99.90;;;;;;4851748;29;20037;-53
2022/10/19 07:49:08;;;;;;;14.38;10.07;;;15.50;99.90;;;;;;4855893;29;20509;-58
2022/10/19 07:51:37;;;;;;;12.98;9.57;;;15.10;99.90;;;;;;4849650;29;20049;-55
2022/10/19 07:54:04;;;;;;;17.25;9.63;;;14.70;99.90;;;;;;4856391;29;20049;-56
2022/10/19 07:56:31;;;;;;;17.27;9.45;;;14.50;99.90;;;;;;4856940;29;20585;-57
2022/10/19 07:58:59;;;;;;;18.08;11.20;;;14.20;99.90;;;;;;4852408;29;20073;-56
2022/10/19 08:01:28;;;;;;;13.90;9.40;;;13.90;99.90;;;;;;4855140;29;20081;-56
2022/10/19 08:03:57;;;;;;;12.10;8.35;;;13.70;99.90;;;;;;4853709;29;20484;-56
2022/10/19 08:06:44;;;;;;;10.55;7.75;;;13.60;99.90;;;;;;4853297;29;20049;-55
2022/10/19 08:09:10;;;;;;;;;;;13.40;99.90;;;;;;4855339;29;20549;-55
2022/10/19 08:11:57;;;;;;;15.27;10.77;;;13.30;99.90;;;;;;4859099;29;20014;-54
2022/10/19 08:14:24;;;;;;;13.30;10.35;;;13.20;99.90;;;;;;4851998;29;20048;-56
2022/10/19 08:16:51;;;;;;;13.63;10.68;;;13.20;99.90;;;;;;4855280;29;20057;-55
2022/10/19 08:19:18;;;;;;;24.63;14.52;;;13.20;99.90;;;;;;4851568;29;20051;-55
2022/10/19 08:21:45;;;;;;;16.73;11.07;;;13.10;99.90;;;;;;4855839;29;20412;-55
2022/10/19 08:24:14;;;;;;;20.48;13.20;;;13.10;99.90;;;;;;4853724;29;20084;-55
2022/10/19 08:26:42;;;;;;;21.35;14.30;;;13.10;99.90;;;;;;4857645;29;20049;-54
2022/10/19 08:29:17;;;;;;;21.10;14.23;;;13.10;99.90;;;;;;4856976;29;20053;-57
2022/10/19 08:31:45;;;;;;;26.02;16.42;;;13.20;99.90;;;;;;4856790;29;20048;-56
2022/10/19 08:34:13;;;;;;;16.98;11.52;;;13.20;99.90;;;;;;4849313;29;20052;-55
2022/10/19 08:36:39;;;;;;;25.27;14.63;;;13.20;99.90;;;;;;4855464;29;20049;-55
2022/10/19 08:39:08;;;;;;;25.88;15.82;;;13.30;99.90;;;;;;4856735;29;20055;-56
2022/10/19 08:41:50;;;;;;;24.02;16.77;;;13.30;99.90;;;;;;4854050;29;20428;-55
2022/10/19 08:44:20;;;;;;;27.35;15.98;;;13.30;99.90;;;;;;4861397;29;20065;-53
2022/10/19 08:47:11;;;;;;;30.05;19.13;;;13.30;99.90;;;;;;4850737;29;20059;-55
2022/10/19 08:49:40;;;;;;;35.05;21.40;;;13.40;99.90;;;;;;4859773;29;20057;-55
2022/10/19 08:52:11;;;;;;;36.80;20.50;;;13.40;99.90;;;;;;4860770;29;20934;-56
2022/10/19 08:54:49;;;;;;;23.10;17.88;;;13.40;99.90;;;;;;4854808;29;20459;-57
2022/10/19 08:57:39;;;;;;;24.27;16.38;;;13.50;99.90;;;;;;4855635;29;20061;-56
2022/10/19 09:00:14;;;;;;;28.33;19.13;;;13.50;99.90;;;;;;4865044;29;20077;-57
2022/10/19 09:03:03;;;;;;;28.42;17.73;;;13.60;99.90;;;;;;4843509;29;20060;-56
2022/10/19 09:06:04;;;;;;;24.20;16.52;;;13.70;99.90;;;;;;4843186;29;20049;-56
2022/10/19 09:08:32;;;;;;;28.10;20.00;;;13.80;99.90;;;;;;4846883;29;20117;-55
2022/10/19 09:10:59;;;;;;;31.30;19.98;;;13.90;99.90;;;;;;4859652;29;20061;-55
2022/10/19 09:13:32;;;;;;;;;;;13.90;99.90;;;;;;4857972;29;20060;-53
2022/10/19 09:16:18;;;;;;;28.02;18.38;;;13.90;99.90;;;;;;4857317;29;19931;-58
2022/10/19 09:18:45;;;;;;;28.52;19.92;;;13.90;99.90;;;;;;4859463;29;20044;-55
2022/10/19 09:21:38;;;;;;;30.48;18.92;;;13.90;99.90;;;;;;4858060;29;20048;-52
2022/10/19 09:24:28;;;;;;;47.55;22.55;;;13.90;99.90;;;;;;4846790;29;20053;-57
2022/10/19 09:26:58;;;;;;;32.45;21.08;;;13.90;99.90;;;;;;4862584;29;20120;-56
2022/10/19 09:29:35;;;;;;;31.02;20.20;;;13.90;99.90;;;;;;4860514;29;20093;-55
2022/10/19 09:32:09;;;;;;;36.47;22.83;;;13.90;99.90;;;;;;4864539;29;20191;-54
2022/10/19 09:34:41;;;;;;;29.13;18.25;;;13.90;99.90;;;;;;4862890;29;20466;-55
2022/10/19 09:37:11;;;;;;;26.23;16.65;;;13.90;99.90;;;;;;4864888;29;20056;-57
2022/10/19 09:39:49;;;;;;;28.40;18.42;;;14.00;99.90;;;;;;4855718;29;20058;-55
2022/10/19 09:42:31;;;;;;;25.85;17.90;;;14.10;99.90;;;;;;4846993;29;20867;-56
2022/10/19 09:45:10;;;;;;;22.92;17.40;;;14.10;99.90;;;;;;4861332;29;20543;-56
2022/10/19 09:47:39;;;;;;;22.38;16.70;;;14.10;99.90;;;;;;4857933;29;20147;-54
2022/10/19 09:50:24;;;;;;;20.95;15.05;;;14.20;99.90;;;;;;4864558;29;20084;-56
2022/10/19 09:53:17;;;;;;;17.80;14.18;;;14.20;99.90;;;;;;4860769;29;20464;-53
2022/10/19 09:55:49;;;;;;;22.38;15.70;;;14.30;99.90;;;;;;4856183;29;20770;-53
2022/10/19 09:58:18;;;;;;;28.75;18.30;;;14.40;99.90;;;;;;4857667;29;20078;-55
2022/10/19 10:00:45;;;;;;;23.33;17.00;;;14.50;99.90;;;;;;4858321;29;20128;-58
2022/10/19 10:03:39;;;;;;;29.45;18.08;;;14.50;99.90;;;;;;4857859;29;20057;-56
2022/10/19 10:06:09;;;;;;;22.50;16.95;;;14.60;99.90;;;;;;4850830;29;20060;-56
2022/10/19 10:08:38;;;;;;;26.85;17.85;;;14.70;99.90;;;;;;4854427;29;20061;-54
2022/10/19 10:11:23;;;;;;;24.98;16.27;;;14.70;99.90;;;;;;4852408;29;20516;-56
2022/10/19 10:13:53;;;;;;;26.38;17.58;;;14.80;99.90;;;;;;4849201;29;20068;-56
2022/10/19 10:16:22;;;;;;;20.27;14.40;;;14.90;99.90;;;;;;4860018;29;20706;-56
2022/10/19 10:18:58;;;;;;;27.88;18.30;;;15.00;99.90;;;;;;4851715;29;20048;-55
2022/10/19 10:21:27;;;;;;;26.87;18.20;;;15.10;99.90;;;;;;4856387;29;20088;-55
2022/10/19 10:24:01;;;;;;;25.52;17.13;;;15.30;99.90;;;;;;4843922;29;20454;-57
2022/10/19 10:26:28;;;;;;;25.27;17.75;;;15.40;99.90;;;;;;4856382;29;20052;-56
2022/10/19 10:28:55;;;;;;;;;;;15.50;99.90;;;;;;4855927;29;20566;-56
2022/10/19 10:31:28;;;;;;;24.90;16.83;;;15.60;99.90;;;;;;4862387;29;20509;-55
2022/10/19 10:34:04;;;;;;;20.80;15.93;;;15.70;99.90;;;;;;4856777;29;20063;-57
2022/10/19 10:36:52;;;;;;;21.60;15.50;;;15.70;99.90;;;;;;4856572;29;20455;-55
2022/10/19 10:39:19;;;;;;;23.08;16.35;;;15.80;99.90;;;;;;4857500;29;20307;-56
2022/10/19 10:41:47;;;;;;;24.92;15.45;;;15.90;99.90;;;;;;4853549;29;20100;-56
2022/10/19 10:44:19;;;;;;;24.98;17.90;;;15.90;99.90;;;;;;4856885;29;20538;-56
2022/10/19 10:47:12;;;;;;;27.10;15.77;;;16.30;99.90;;;;;;4859021;29;20076;-55
2022/10/19 10:49:41;;;;;;;27.58;16.95;;;16.60;99.90;;;;;;4854667;29;20217;-55
2022/10/19 10:52:13;;;;;;;21.50;14.88;;;16.80;99.90;;;;;;4837845;29;20063;-55
2022/10/19 10:54:55;;;;;;;17.90;12.50;;;16.90;99.90;;;;;;4854226;29;20061;-56
2022/10/19 10:57:26;;;;;;;19.27;12.93;;;16.90;99.90;;;;;;4861035;29;20287;-59
2022/10/19 11:00:09;;;;;;;25.77;15.07;;;17.00;99.90;;;;;;4854026;29;20128;-54
2022/10/19 11:03:10;;;;;;;19.13;14.02;;;17.20;99.90;;;;;;4852749;29;20047;-55
2022/10/19 11:05:44;;;;;;;20.60;14.00;;;17.50;99.90;;;;;;4850600;29;20049;-55
2022/10/19 11:08:11;;;;;;;23.65;13.07;;;17.90;99.90;;;;;;4850610;29;20052;-53
2022/10/19 11:11:15;;;;;;;20.95;13.30;;;18.30;99.90;;;;;;4836392;29;20702;-55
2022/10/19 11:13:55;;;;;;;16.88;12.50;;;18.70;99.90;;;;;;4848708;29;20136;-55
2022/10/19 11:16:32;;;;;;;18.88;11.75;;;19.30;99.90;;;;;;4846139;29;20265;-54
2022/10/19 11:19:17;;;;;;;;;;;19.70;99.90;;;;;;4853119;29;20164;-55
2022/10/19 11:22:12;;;;;;;19.95;12.23;;;20.00;99.90;;;;;;4849315;29;20460;-54
2022/10/19 11:24:57;;;;;;;19.02;12.48;;;20.30;99.90;;;;;;4860952;29;20049;-56
2022/10/19 11:27:49;;;;;;;22.25;11.90;;;20.50;99.90;;;;;;4854508;29;20475;-56
2022/10/19 11:30:19;;;;;;;18.25;13.50;;;20.80;99.90;;;;;;4855426;29;20076;-54
2022/10/19 11:33:14;;;;;;;18.17;10.63;;;21.00;99.90;;;;;;4857313;29;20052;-56
2022/10/19 11:35:53;;;;;;;18.23;9.25;;;21.20;99.90;;;;;;4856644;29;20039;-54
2022/10/19 11:38:34;;;;;;;12.27;7.78;;;21.40;99.90;;;;;;4855038;29;20176;-55
2022/10/19 11:41:21;;;;;;;24.73;9.95;;;21.70;99.90;;;;;;4861144;29;20129;-58
2022/10/19 11:44:09;;;;;;;14.93;7.95;;;21.80;99.90;;;;;;4854081;29;20590;-53
2022/10/19 11:47:04;;;;;;;14.55;8.45;;;21.70;99.90;;;;;;4856793;29;20068;-55
2022/10/19 11:49:37;;;;;;;17.85;9.93;;;21.70;99.90;;;;;;4854444;29;20252;-53
2022/10/19 11:52:28;;;;;;;12.77;7.75;;;21.60;99.90;;;;;;4850627;29;20055;-57
2022/10/19 11:55:26;;;;;;;16.70;8.40;;;21.70;99.90;;;;;;4852994;29;20436;-55
2022/10/19 11:58:37;;;;;;;16.43;7.47;;;21.80;99.90;;;;;;4840431;29;20058;-56
2022/10/19 12:01:21;;;;;;;13.00;8.40;;;21.90;99.90;;;;;;4831027;29;20164;-55
2022/10/19 12:04:03;;;;;;;12.60;8.50;;;22.00;99.90;;;;;;4852995;29;20056;-56
2022/10/19 12:06:39;;;;;;;10.52;7.60;;;22.10;99.90;;;;;;4850807;29;20056;-56
2022/10/19 12:09:26;;;;;;;13.32;8.43;;;22.10;99.90;;;;;;4855975;29;20480;-56
2022/10/19 12:12:13;;;;;;;13.02;7.65;;;22.20;99.90;;;;;;4850385;29;20115;-58
2022/10/19 12:14:43;;;;;;;13.27;7.55;;;22.40;99.90;;;;;;4850385;29;20217;-54
2022/10/19 12:17:19;;;;;;;14.32;7.55;;;22.50;99.90;;;;;;4847143;29;20088;-57
2022/10/19 12:19:49;;;;;;;14.80;8.32;;;22.60;99.90;;;;;;4861680;29;20053;-54
2022/10/19 12:22:22;;;;;;;13.50;7.95;;;22.70;99.90;;;;;;4856425;29;20123;-56
2022/10/19 12:24:49;;;;;;;15.10;9.20;;;23.00;99.90;;;;;;4859505;29;20563;-54
2022/10/19 12:27:23;;;;;;;14.05;7.40;;;23.10;99.90;;;;;;4858017;29;20215;-57
2022/10/19 12:29:51;;;;;;;14.57;8.35;;;23.20;99.90;;;;;;4861474;29;20060;-56
2022/10/19 12:32:22;;;;;;;13.10;7.55;;;23.40;99.90;;;;;;4860555;29;20326;-55
2022/10/19 12:34:55;;;;;;;14.23;8.45;;;23.40;98.70;;;;;;4854910;29;20080;-56
2022/10/19 12:37:44;;;;;;;15.05;6.93;;;23.40;99.00;;;;;;4854475;29;20535;-57
2022/10/19 12:40:33;;;;;;;12.23;7.75;;;23.40;99.10;;;;;;4855000;29;20515;-56
2022/10/19 12:43:07;;;;;;;16.38;7.30;;;23.50;98.70;;;;;;4849588;29;20481;-56
2022/10/19 12:45:42;;;;;;;20.95;9.10;;;23.50;97.90;;;;;;4851177;29;20730;-58
2022/10/19 12:48:13;;;;;;;10.77;7.25;;;23.60;96.70;;;;;;4833238;29;20710;-57
2022/10/19 12:50:48;;;;;;;16.73;8.77;;;23.70;96.60;;;;;;4851940;29;20046;-58
2022/10/19 12:53:35;;;;;;;16.35;8.60;;;23.80;96.10;;;;;;4852661;29;20049;-54
2022/10/19 12:56:06;;;;;;;13.93;8.82;;;23.90;95.20;;;;;;4849692;29;20056;-60
2022/10/19 12:58:56;;;;;;;16.63;8.95;;;24.00;94.70;;;;;;4850345;29;20111;-57
2022/10/19 13:01:32;;;;;;;12.68;7.22;;;23.90;95.20;;;;;;4848222;29;20054;-56
2022/10/19 13:04:12;;;;;;;13.25;5.68;;;23.90;94.70;;;;;;4847116;29;20049;-59
2022/10/19 13:06:56;;;;;;;9.82;5.55;;;23.90;94.10;;;;;;4856016;29;20052;-56
2022/10/19 13:09:29;;;;;;;12.32;8.23;;;24.00;92.70;;;;;;4848046;29;20105;-54